createdAt,value
2019-06-01T00:02:12.983Z,1.20
2019-06-01T00:05:32.405Z,1.27
2019-06-01T00:08:57.572Z,1.20
2019-06-01T00:12:16.848Z,1.20
2019-06-01T00:15:36.468Z,1.17
2019-06-01T00:19:01.351Z,1.43
2019-06-01T00:22:09.216Z,1.30
2019-06-01T00:25:16.394Z,1.13
2019-06-01T00:28:23.562Z,1.33
2019-06-01T00:31:30.806Z,1.23
2019-06-01T00:34:38.078Z,1.63
2019-06-01T00:37:45.630Z,1.47
2019-06-01T00:40:52.920Z,1.20
2019-06-01T00:44:00.271Z,1.17
2019-06-01T00:47:07.500Z,1.00
2019-06-01T00:50:14.735Z,1.70
2019-06-01T00:53:21.982Z,1.23
2019-06-01T00:56:29.365Z,1.67
2019-06-01T00:59:36.537Z,1.27
2019-06-01T01:02:55.806Z,1.07
2019-06-01T01:06:21.000Z,1.23
2019-06-01T01:09:28.199Z,1.57
2019-06-01T01:13:04.925Z,1.53
2019-06-01T01:16:26.141Z,1.33
2019-06-01T01:19:45.615Z,1.37
2019-06-01T01:23:04.215Z,1.43
2019-06-01T01:26:22.977Z,1.70
2019-06-01T01:29:42.241Z,1.13
2019-06-01T01:32:49.588Z,1.20
2019-06-01T01:36:07.629Z,2.17
2019-06-01T01:39:14.919Z,1.90
2019-06-01T01:42:34.103Z,1.83
2019-06-01T01:45:59.053Z,1.90
2019-06-01T01:49:18.152Z,1.73
2019-06-01T01:52:25.455Z,2.00
2019-06-01T01:55:43.563Z,1.77
2019-06-01T01:58:52.203Z,2.03
2019-06-01T02:01:59.463Z,2.10
2019-06-01T02:05:06.973Z,1.53
2019-06-01T02:08:26.482Z,1.70
2019-06-01T02:11:33.844Z,1.47
2019-06-01T02:14:59.784Z,1.73
2019-06-01T02:18:07.188Z,2.30
2019-06-01T02:21:14.536Z,2.10
2019-06-01T02:24:21.752Z,2.10
2019-06-01T02:27:28.978Z,2.30
2019-06-01T02:30:36.434Z,1.43
2019-06-01T02:33:43.610Z,2.47
2019-06-01T02:36:49.940Z,1.90
2019-06-01T02:39:58.393Z,2.13
2019-06-01T02:43:16.576Z,2.17
2019-06-01T02:46:36.260Z,2.03
2019-06-01T02:49:43.580Z,2.13
2019-06-01T02:52:50.823Z,2.03
2019-06-01T02:55:57.839Z,2.53
2019-06-01T02:59:23.070Z,2.43
2019-06-01T03:02:30.543Z,2.00
2019-06-01T03:05:50.017Z,2.33
2019-06-01T03:09:09.669Z,2.70
2019-06-01T03:12:28.483Z,2.10
2019-06-01T03:15:48.324Z,2.37
2019-06-01T03:18:55.779Z,2.30
2019-06-01T03:22:16.163Z,2.30
2019-06-01T03:25:23.794Z,2.00
2019-06-01T03:28:44.413Z,2.27
2019-06-01T03:31:51.698Z,2.07
2019-06-01T03:34:59.019Z,1.77
2019-06-01T03:38:06.980Z,3.10
2019-06-01T03:41:26.011Z,2.20
2019-06-01T03:44:51.736Z,1.87
2019-06-01T03:47:59.023Z,2.07
2019-06-01T03:51:24.155Z,2.37
2019-06-01T03:54:31.534Z,2.27
2019-06-01T03:57:50.671Z,2.03
2019-06-01T04:00:57.918Z,2.20
2019-06-01T04:04:05.289Z,1.80
2019-06-01T04:07:30.655Z,2.00
2019-06-01T04:10:38.160Z,1.83
2019-06-01T04:13:45.415Z,1.27
2019-06-01T04:16:52.719Z,2.43
2019-06-01T04:20:00.028Z,1.53
2019-06-01T04:23:08.068Z,1.93
2019-06-01T04:26:27.539Z,1.70
2019-06-01T04:29:35.441Z,1.30
2019-06-01T04:33:00.707Z,1.77
2019-06-01T04:36:20.054Z,1.67
2019-06-01T04:39:27.623Z,1.77
2019-06-01T04:42:46.386Z,1.87
2019-06-01T04:45:53.812Z,1.97
2019-06-01T04:49:13.409Z,1.50
2019-06-01T04:52:20.961Z,1.40
2019-06-01T04:55:28.212Z,1.53
2019-06-01T04:58:33.891Z,1.77
2019-06-01T05:01:41.443Z,1.93
2019-06-01T05:04:48.740Z,1.50
2019-06-01T05:07:56.326Z,1.40
2019-06-01T05:11:21.496Z,1.60
2019-06-01T05:14:40.631Z,1.30
2019-06-01T05:18:07.870Z,1.20
2019-06-01T05:21:15.603Z,1.77
2019-06-01T05:24:23.994Z,1.43
2019-06-01T05:27:30.532Z,1.13
2019-06-01T05:30:38.070Z,1.63
2019-06-01T05:33:45.259Z,1.30
2019-06-01T05:36:52.656Z,1.63
2019-06-01T05:39:59.975Z,1.57
2019-06-01T05:43:10.770Z,1.73
2019-06-01T05:46:16.243Z,1.73
2019-06-01T05:49:23.481Z,1.77
2019-06-01T05:52:42.673Z,1.87
2019-06-01T05:55:49.936Z,0.87
2019-06-01T05:59:15.972Z,1.90
2019-06-01T06:02:40.921Z,1.87
2019-06-01T06:06:00.174Z,1.60
2019-06-01T06:09:08.676Z,1.50
2019-06-01T06:12:17.198Z,1.50
2019-06-01T06:15:24.493Z,2.00
2019-06-01T06:18:31.771Z,1.80
2019-06-01T06:21:37.496Z,1.67
2019-06-01T06:24:44.840Z,2.20
2019-06-01T06:27:52.112Z,2.57
2019-06-01T06:30:59.737Z,2.00
2019-06-01T06:34:19.700Z,1.90
2019-06-01T06:37:27.039Z,1.83
2019-06-01T06:40:34.306Z,1.80
2019-06-01T06:43:41.495Z,2.33
2019-06-01T06:46:48.452Z,2.43
2019-06-01T06:49:55.717Z,2.00
2019-06-01T06:53:25.375Z,1.63
2019-06-01T06:56:36.423Z,2.43
2019-06-01T06:59:43.821Z,2.57
2019-06-01T07:03:06.175Z,3.50
2019-06-01T07:06:31.344Z,4.20
2019-06-01T07:09:38.631Z,3.87
2019-06-01T07:12:58.369Z,5.33
2019-06-01T07:16:17.675Z,4.47
2019-06-01T07:19:25.740Z,4.73
2019-06-01T07:22:32.982Z,3.83
2019-06-01T07:25:40.249Z,3.97
2019-06-01T07:28:46.545Z,3.70
2019-06-01T07:32:06.164Z,3.77
2019-06-01T07:35:32.537Z,4.00
2019-06-01T07:38:39.982Z,3.67
2019-06-01T07:41:47.712Z,3.70
2019-06-01T07:45:06.911Z,3.70
2019-06-01T07:48:25.546Z,3.50
2019-06-01T07:51:44.274Z,3.17
2019-06-01T07:55:03.644Z,3.77
2019-06-01T07:58:28.812Z,3.00
2019-06-01T08:01:36.600Z,2.67
2019-06-01T08:04:55.899Z,3.33
2019-06-01T08:08:15.128Z,3.53
2019-06-01T08:11:25.394Z,2.90
2019-06-01T08:14:43.229Z,2.40
2019-06-01T08:18:02.492Z,3.93
2019-06-01T08:21:09.769Z,3.00
2019-06-01T08:24:28.955Z,2.47
2019-06-01T08:27:36.255Z,3.17
2019-06-01T08:30:54.889Z,3.53
2019-06-01T08:34:20.688Z,3.13
2019-06-01T08:37:45.946Z,2.97
2019-06-01T08:40:52.762Z,3.07
2019-06-01T08:44:00.058Z,2.97
2019-06-01T08:47:07.328Z,3.23
2019-06-01T08:50:13.621Z,3.90
2019-06-01T08:53:20.820Z,3.33
2019-06-01T08:56:28.301Z,2.90
2019-06-01T08:59:35.608Z,2.93
2019-06-01T09:02:43.271Z,3.07
2019-06-01T09:05:49.491Z,3.43
2019-06-01T09:15:17.587Z,3.20
2019-06-01T09:22:50.647Z,2.43
2019-06-01T09:26:14.872Z,3.10
2019-06-01T09:29:44.840Z,2.77
2019-06-01T09:33:28.408Z,3.33
2019-06-01T09:49:12.267Z,2.83
2019-06-01T09:54:34.703Z,2.60
2019-06-01T09:56:39.895Z,2.63
2019-06-01T10:00:17.708Z,2.40
2019-06-01T10:28:27.627Z,1.87
2019-06-01T10:31:34.849Z,1.93
2019-06-01T10:34:42.133Z,1.60
2019-06-01T10:38:01.344Z,1.33
2019-06-01T10:41:08.612Z,2.30
2019-06-01T10:54:54.420Z,1.67
2019-06-01T10:58:01.847Z,1.50
2019-06-01T11:01:26.949Z,1.43
2019-06-01T11:05:49.989Z,1.52
2019-06-01T11:17:26.267Z,0.87
2019-06-01T11:21:11.242Z,1.10
2019-06-01T11:28:16.293Z,1.10
2019-06-01T11:31:36.024Z,1.00
2019-06-01T11:34:44.474Z,0.80
2019-06-01T11:38:03.658Z,0.70
2019-06-01T11:41:21.796Z,0.83
2019-06-01T11:44:29.392Z,0.60
2019-06-01T11:47:47.792Z,0.77
2019-06-01T11:51:17.846Z,0.90
2019-06-01T11:54:37.101Z,1.00
2019-06-01T11:58:02.225Z,0.70
2019-06-01T12:01:21.414Z,1.20
2019-06-01T12:04:28.759Z,0.80
2019-06-01T12:07:47.800Z,0.97
2019-06-01T12:10:55.078Z,1.00
2019-06-01T12:14:02.362Z,0.60
2019-06-01T12:17:21.484Z,0.93
2019-06-01T12:25:28.660Z,0.80
2019-06-01T12:38:08.820Z,0.70
2019-06-01T12:41:39.676Z,0.77
2019-06-01T12:49:06.821Z,0.63
2019-06-01T12:52:36.441Z,0.50
2019-06-01T12:56:00.933Z,0.60
2019-06-01T12:59:08.221Z,0.50
2019-06-01T13:02:26.937Z,0.60
2019-06-01T13:05:52.102Z,0.60
2019-06-01T13:08:59.626Z,0.50
2019-06-01T13:12:24.587Z,0.70
2019-06-01T13:15:32.064Z,0.60
2019-06-01T13:18:57.364Z,0.50
2019-06-01T13:22:15.832Z,0.70
2019-06-01T13:25:23.033Z,0.57
2019-06-01T13:28:38.129Z,0.40
2019-06-01T13:32:12.207Z,0.40
2019-06-01T13:35:31.556Z,0.50
2019-06-01T13:38:50.854Z,0.73
2019-06-01T13:42:16.019Z,0.80
2019-06-01T13:45:41.175Z,0.40
2019-06-01T13:48:49.790Z,0.50
2019-06-01T13:51:57.235Z,0.40
2019-06-01T13:55:16.478Z,0.80
2019-06-01T13:58:41.264Z,0.70
2019-06-01T14:02:10.519Z,0.60
2019-06-01T14:05:17.784Z,0.70
2019-06-01T14:08:37.245Z,0.70
2019-06-01T14:11:45.256Z,0.57
2019-06-01T14:14:53.455Z,0.67
2019-06-01T14:18:00.983Z,0.90
2019-06-01T14:21:08.171Z,1.23
2019-06-01T14:24:15.456Z,1.00
2019-06-01T14:27:22.635Z,1.53
2019-06-01T14:30:29.904Z,1.47
2019-06-01T14:33:37.502Z,0.83
2019-06-01T14:36:44.829Z,1.20
2019-06-01T14:39:52.881Z,1.30
2019-06-01T14:43:00.369Z,1.30
2019-06-01T14:46:08.070Z,1.23
2019-06-01T14:49:15.705Z,1.83
2019-06-01T14:52:35.390Z,1.70
2019-06-01T14:56:00.583Z,1.60
2019-06-01T14:59:20.389Z,2.00
2019-06-01T15:02:39.094Z,1.77
2019-06-01T15:05:46.380Z,1.53
2019-06-01T15:09:10.558Z,1.60
2019-06-01T15:12:18.787Z,1.70
2019-06-01T15:15:26.066Z,1.87
2019-06-01T15:18:51.681Z,1.60
2019-06-01T15:21:59.230Z,1.57
2019-06-01T15:25:18.365Z,1.33
2019-06-01T15:28:37.535Z,1.70
2019-06-01T15:31:44.714Z,1.07
2019-06-01T15:35:10.087Z,1.50
2019-06-01T15:38:17.376Z,1.37
2019-06-01T15:41:24.716Z,1.90
2019-06-01T15:44:31.946Z,1.90
2019-06-01T15:47:39.454Z,1.47
2019-06-01T15:50:46.660Z,1.20
2019-06-01T15:53:54.808Z,1.30
2019-06-01T15:57:02.721Z,1.90
2019-06-01T16:00:10.451Z,1.10
2019-06-01T16:03:36.043Z,1.50
2019-06-01T16:06:43.225Z,1.17
2019-06-01T16:09:50.576Z,1.30
2019-06-01T16:13:09.259Z,1.13
2019-06-01T16:16:16.472Z,1.53
2019-06-01T16:19:23.637Z,1.40
2019-06-01T16:22:29.753Z,1.10
2019-06-01T16:25:37.122Z,1.23
2019-06-01T16:28:44.448Z,0.80
2019-06-01T16:31:51.664Z,1.13
2019-06-01T16:34:58.951Z,1.17
2019-06-01T16:38:06.351Z,0.80
2019-06-01T16:41:13.970Z,0.83
2019-06-01T16:44:21.266Z,1.00
2019-06-01T16:47:28.547Z,1.27
2019-06-01T16:50:53.423Z,0.70
2019-06-01T16:54:12.156Z,0.70
2019-06-01T16:57:19.435Z,0.90
2019-06-01T17:08:50.702Z,0.77
2019-06-01T17:12:15.291Z,0.60
2019-06-01T17:15:34.591Z,1.03
2019-06-01T17:18:53.511Z,0.60
2019-06-01T17:22:01.445Z,1.00
2019-06-01T17:25:08.916Z,0.93
2019-06-01T17:28:16.285Z,0.67
2019-06-01T17:31:23.696Z,0.70
2019-06-01T17:34:31.136Z,0.80
2019-06-01T17:37:38.299Z,1.00
2019-06-01T17:40:45.640Z,0.50
2019-06-01T17:44:11.414Z,0.50
2019-06-01T17:47:18.700Z,0.40
2019-06-01T17:50:37.351Z,0.43
2019-06-01T17:54:05.013Z,0.70
2019-06-01T17:57:12.163Z,0.50
2019-06-01T18:00:19.482Z,0.40
2019-06-01T18:03:26.803Z,0.57
2019-06-01T18:06:34.506Z,0.63
2019-06-01T18:09:41.774Z,0.60
2019-06-01T18:12:49.204Z,0.60
2019-06-01T18:16:08.342Z,0.77
2019-06-01T18:19:15.665Z,0.60
2019-06-01T18:22:53.200Z,0.60
2019-06-01T18:26:00.533Z,0.80
2019-06-01T18:29:08.618Z,0.47
2019-06-01T18:32:36.039Z,0.40
2019-06-01T18:35:42.250Z,0.50
2019-06-01T18:38:49.707Z,0.40
2019-06-01T18:41:56.954Z,0.23
2019-06-01T18:45:05.641Z,0.40
2019-06-01T18:48:14.381Z,0.30
2019-06-01T18:51:21.898Z,0.37
2019-06-01T18:54:29.280Z,0.30
2019-06-01T18:57:36.815Z,0.20
2019-06-01T19:00:56.154Z,0.20
2019-06-01T19:04:15.986Z,0.40
2019-06-01T19:07:23.276Z,0.20
2019-06-01T19:10:30.555Z,0.30
2019-06-01T19:13:37.856Z,0.47
2019-06-01T19:16:45.199Z,0.23
2019-06-01T19:19:52.482Z,0.30
2019-06-01T19:22:59.817Z,0.23
2019-06-01T19:26:11.571Z,0.47
2019-06-01T19:29:17.016Z,0.27
2019-06-01T19:32:24.361Z,0.30
2019-06-01T19:35:31.838Z,0.40
2019-06-01T19:38:40.218Z,0.30
2019-06-01T19:41:47.372Z,0.30
2019-06-01T19:44:54.689Z,0.30
2019-06-01T19:48:01.862Z,0.40
2019-06-01T19:51:10.596Z,0.37
2019-06-01T19:54:19.028Z,0.30
2019-06-01T19:57:26.453Z,0.20
2019-06-01T20:00:33.742Z,0.20
2019-06-01T20:03:40.916Z,0.40
2019-06-01T20:06:48.115Z,0.30
2019-06-01T20:09:55.638Z,0.40
2019-06-01T20:13:03.137Z,0.30
2019-06-01T20:16:10.756Z,0.30
2019-06-01T20:19:30.330Z,0.30
2019-06-01T20:22:56.108Z,0.23
2019-06-01T20:26:03.513Z,0.30
2019-06-01T20:29:28.158Z,0.37
2019-06-01T20:32:46.815Z,0.50
2019-06-01T20:36:12.115Z,0.20
2019-06-01T20:39:20.264Z,0.30
2019-06-01T20:42:39.625Z,0.30
2019-06-01T20:45:45.948Z,0.30
2019-06-01T20:48:53.333Z,0.40
2019-06-01T20:51:59.597Z,0.30
2019-06-01T20:55:07.902Z,0.40
2019-06-01T20:58:13.844Z,0.47
2019-06-01T21:01:21.956Z,0.30
2019-06-01T21:04:29.306Z,0.47
2019-06-01T21:07:36.887Z,0.30
2019-06-01T21:10:44.286Z,0.40
2019-06-01T21:13:51.459Z,0.40
2019-06-01T21:16:58.928Z,0.40
2019-06-01T21:20:28.601Z,0.30
2019-06-01T21:23:50.438Z,0.40
2019-06-01T21:27:16.536Z,0.40
2019-06-01T21:30:24.599Z,0.40
2019-06-01T21:33:32.835Z,0.40
2019-06-01T21:36:41.892Z,0.53
2019-06-01T21:39:48.965Z,0.60
2019-06-01T21:43:06.811Z,0.60
2019-06-01T21:46:05.482Z,0.60
2019-06-01T21:49:30.583Z,0.70
2019-06-01T21:52:37.865Z,0.53
2019-06-01T21:55:57.910Z,0.73
2019-06-01T21:59:22.889Z,0.40
2019-06-01T22:02:30.152Z,0.40
2019-06-01T22:05:55.646Z,0.40
2019-06-01T22:09:14.749Z,0.40
2019-06-01T22:12:33.388Z,0.40
2019-06-01T22:15:40.623Z,0.70
2019-06-01T22:18:47.884Z,0.30
2019-06-01T22:22:13.013Z,0.60
2019-06-01T22:25:20.934Z,0.43
2019-06-01T22:28:47.156Z,0.47
2019-06-01T22:31:54.412Z,0.63
2019-06-01T22:35:20.821Z,0.50
2019-06-01T22:38:28.183Z,0.50
2019-06-01T22:41:35.435Z,0.60
2019-06-01T22:44:42.625Z,0.90
2019-06-01T22:47:49.851Z,0.50
2019-06-01T22:50:57.148Z,0.83
2019-06-01T22:54:04.891Z,0.50
2019-06-01T22:57:12.230Z,0.60
2019-06-01T23:00:19.648Z,0.60
2019-06-01T23:03:27.981Z,0.83
2019-06-01T23:06:46.883Z,0.60
2019-06-01T23:10:12.366Z,0.53
2019-06-01T23:13:52.311Z,1.00
2019-06-01T23:16:58.207Z,0.60
2019-06-01T23:20:06.700Z,0.50
2019-06-01T23:23:14.264Z,1.03
2019-06-01T23:26:33.583Z,0.93
2019-06-01T23:29:40.875Z,0.93
2019-06-01T23:33:00.022Z,0.70
2019-06-01T23:36:07.265Z,0.90
2019-06-01T23:39:14.045Z,0.60
2019-06-01T23:42:22.555Z,0.50
2019-06-01T23:45:30.918Z,0.70
2019-06-01T23:48:49.795Z,0.50
2019-06-01T23:52:08.996Z,0.53
2019-06-01T23:55:34.292Z,0.80
2019-06-01T23:58:41.519Z,0.70
